Time;durP1;ratioP1;P1;durP2;ratioP2;P2;SDS_P1;SDS_P2;PMS_P1;PMS_P2;Temp;Humidity;BMP_temperature;BMP_pressure;BME280_temperature;BME280_humidity;BME280_pressure;Samples;Min_cycle;Max_cycle;Signal;HPM_P1;HPM_P2
2023/11/02 00:04:32;;;;;;;;;;;;;;;17.87;58.49;97570.13;10331633;28;885;-81
2023/11/02 00:09:28;;;;;;;;;;;;;;;17.85;58.59;97539.59;10331394;28;1211;-81
2023/11/02 00:14:24;;;;;;;;;;;;;;;17.82;58.53;97566.19;10332067;28;870;-80
2023/11/02 00:19:20;;;;;;;;;;;;;;;17.81;58.40;97546.88;10330872;28;1894;-80
2023/11/02 00:24:15;;;;;;;;;;;;;;;17.79;58.47;97540.00;10330327;28;1017;-80
2023/11/02 00:29:11;;;;;;;;;;;;;;;17.77;58.73;97526.97;10330711;28;1879;-80
2023/11/02 00:34:07;;;;;;;;;;;;;;;17.75;58.71;97518.34;10331559;28;802;-80
2023/11/02 00:39:03;;;;;;;;;;;;;;;17.73;58.86;97505.28;10330383;28;1899;-80
2023/11/02 00:43:59;;;;;;;;;;;;;;;17.72;58.82;97498.34;10329509;28;992;-80
2023/11/02 00:48:55;;;;;;;;;;;;;;;17.71;58.88;97488.78;10330183;28;898;-81
2023/11/02 00:53:51;;;;;;;;;;;;;;;17.71;58.85;97495.81;10329818;28;889;-80
2023/11/02 00:58:47;;;;;;;;;;;;;;;17.68;58.80;97485.53;10329905;28;1893;-80
2023/11/02 01:03:45;;;;;;;;;;;;;;;17.67;58.88;97468.88;10329391;28;905;-81
2023/11/02 01:08:40;;;;;;;;;;;;;;;17.65;59.04;97457.63;10329795;28;930;-80
2023/11/02 01:13:36;;;;;;;;;;;;;;;17.64;59.00;97450.69;10328967;28;918;-81
2023/11/02 01:18:32;;;;;;;;;;;;;;;17.63;58.96;97422.69;10328710;28;1894;-80
2023/11/02 01:23:28;;;;;;;;;;;;;;;17.61;58.96;97405.34;10328559;28;885;-81
2023/11/02 01:28:24;;;;;;;;;;;;;;;17.60;59.17;97414.19;10328594;28;782;-80
2023/11/02 01:33:20;;;;;;;;;;;;;;;17.58;59.26;97402.91;10328856;28;1120;-80
2023/11/02 01:38:16;;;;;;;;;;;;;;;17.57;58.89;97386.28;10327358;28;1906;-80
2023/11/02 01:43:12;;;;;;;;;;;;;;;17.56;59.23;97375.88;10327782;28;902;-80
2023/11/02 01:48:08;;;;;;;;;;;;;;;17.54;59.09;97354.94;10327477;28;984;-81
2023/11/02 01:53:04;;;;;;;;;;;;;;;17.53;59.18;97351.47;10327119;28;922;-81
2023/11/02 01:58:00;;;;;;;;;;;;;;;17.51;58.98;97321.78;10327828;28;1886;-81
2023/11/02 02:02:56;;;;;;;;;;;;;;;17.52;59.11;97306.78;10327666;28;872;-81
2023/11/02 02:07:52;;;;;;;;;;;;;;;17.50;59.13;97292.91;10326355;28;1496;-81
2023/11/02 02:12:48;;;;;;;;;;;;;;;17.48;59.30;97274.63;10326710;28;829;-81
2023/11/02 02:17:44;;;;;;;;;;;;;;;17.47;59.20;97253.66;10326348;28;1943;-80
2023/11/02 02:22:40;;;;;;;;;;;;;;;17.46;59.11;97234.41;10327592;28;825;-80
2023/11/02 02:27:36;;;;;;;;;;;;;;;17.46;59.19;97226.50;10326746;28;900;-81
2023/11/02 02:32:32;;;;;;;;;;;;;;;17.46;59.14;97208.06;10325840;28;1454;-81
2023/11/02 02:37:29;;;;;;;;;;;;;;;17.44;59.17;97182.81;10325893;28;1902;-81
2023/11/02 02:42:24;;;;;;;;;;;;;;;17.42;59.32;97167.16;10325836;28;808;-81
2023/11/02 02:47:20;;;;;;;;;;;;;;;17.42;59.25;97168.94;10325620;28;1046;-81
2023/11/02 02:52:18;;;;;;;;;;;;;;;17.41;59.36;97146.22;10324912;28;878;-81
2023/11/02 02:57:14;;;;;;;;;;;;;;;17.41;59.27;97114.63;10325330;28;1901;-81
2023/11/02 03:02:10;;;;;;;;;;;;;;;17.40;59.43;97105.06;10325660;28;944;-81
2023/11/02 03:07:05;;;;;;;;;;;;;;;17.39;59.16;97096.28;10324934;28;762;-81
2023/11/02 03:12:01;;;;;;;;;;;;;;;17.39;59.39;97085.75;10325169;28;860;-81
2023/11/02 03:16:57;;;;;;;;;;;;;;;17.36;59.48;97072.84;10325071;28;1949;-81
2023/11/02 03:21:53;;;;;;;;;;;;;;;17.35;59.54;97063.31;10325009;28;929;-80
2023/11/02 03:26:50;;;;;;;;;;;;;;;17.36;59.40;97056.22;10325743;28;874;-81
2023/11/02 03:31:46;;;;;;;;;;;;;;;17.35;59.28;97057.22;10324770;28;1564;-81
2023/11/02 03:36:42;;;;;;;;;;;;;;;17.35;59.48;97055.41;10325187;28;1969;-80
2023/11/02 03:41:40;;;;;;;;;;;;;;;17.32;59.26;97013.53;10325218;28;869;-80
2023/11/02 03:46:36;;;;;;;;;;;;;;;17.32;59.51;96989.84;10324348;28;882;-81
2023/11/02 03:51:34;;;;;;;;;;;;;;;17.31;59.29;96977.63;10325000;28;783;-80
2023/11/02 03:56:30;;;;;;;;;;;;;;;17.29;59.52;96945.34;10324367;28;868;-81
2023/11/02 04:01:26;;;;;;;;;;;;;;;17.27;59.40;96945.47;10324776;28;1890;-81
2023/11/02 04:06:22;;;;;;;;;;;;;;;17.27;59.54;96924.41;10324174;28;793;-81
2023/11/02 04:11:18;;;;;;;;;;;;;;;17.27;59.53;96920.97;10324046;28;910;-80
2023/11/02 04:16:14;;;;;;;;;;;;;;;17.27;59.46;96911.25;10327454;28;979;-81
2023/11/02 04:21:09;;;;;;;;;;;;;;;17.27;59.52;96897.28;10330366;28;1961;-81
2023/11/02 04:26:06;;;;;;;;;;;;;;;17.25;59.53;96863.16;10330909;28;768;-81
2023/11/02 04:31:02;;;;;;;;;;;;;;;17.24;59.69;96851.00;10327961;28;1222;-81
2023/11/02 04:35:58;;;;;;;;;;;;;;;17.23;59.55;96841.41;10329469;28;1320;-81
2023/11/02 04:40:55;;;;;;;;;;;;;;;17.22;59.56;96821.31;10329549;28;1973;-81
2023/11/02 04:45:51;;;;;;;;;;;;;;;17.21;59.59;96797.75;10329909;28;988;-81
2023/11/02 04:50:47;;;;;;;;;;;;;;;17.20;59.37;96788.22;10329868;28;952;-81
2023/11/02 04:55:43;;;;;;;;;;;;;;;17.19;59.38;96755.81;10329865;28;1712;-80
2023/11/02 05:00:39;;;;;;;;;;;;;;;17.21;59.30;96717.03;10328944;28;1953;-78
2023/11/02 05:05:35;;;;;;;;;;;;;;;17.28;59.33;96688.34;10329230;28;875;-78
2023/11/02 05:10:30;;;;;;;;;;;;;;;17.31;59.23;96635.41;10328741;28;933;-77
2023/11/02 05:15:28;;;;;;;;;;;;;;;17.33;59.05;96578.19;10328828;28;775;-78
2023/11/02 05:20:25;;;;;;;;;;;;;;;17.38;59.01;96498.78;10328602;28;1941;-78
2023/11/02 05:25:21;;;;;;;;;;;;;;;17.40;58.85;96407.34;10329134;28;778;-76
2023/11/02 05:30:16;;;;;;;;;;;;;;;17.47;58.65;96361.00;10327639;28;1097;-78
2023/11/02 05:35:15;;;;;;;;;;;;;;;17.61;58.35;96307.03;10327732;28;759;-71
2023/11/02 05:40:11;;;;;;;;;;;;;;;17.75;58.20;96296.78;10327425;28;1910;-70
2023/11/02 05:45:08;;;;;;;;;;;;;;;17.85;57.79;96285.41;10327367;28;1112;-71
2023/11/02 05:50:04;;;;;;;;;;;;;;;17.85;57.88;96323.09;10324396;28;1148;-71
2023/11/02 05:55:00;;;;;;;;;;;;;;;17.91;57.66;96353.28;10327036;28;947;-70
2023/11/02 05:59:57;;;;;;;;;;;;;;;17.95;57.57;96346.75;10326474;28;1997;-70
2023/11/02 06:04:53;;;;;;;;;;;;;;;17.95;57.52;96325.66;10326727;28;947;-71
2023/11/02 06:09:48;;;;;;;;;;;;;;;17.99;57.53;96329.63;10326869;28;837;-70
2023/11/02 06:14:44;;;;;;;;;;;;;;;18.03;57.35;96320.47;10326494;28;763;-70
2023/11/02 06:19:40;;;;;;;;;;;;;;;17.99;57.27;96102.22;10325731;28;1906;-70
2023/11/02 06:24:37;;;;;;;;;;;;;;;18.02;57.47;96216.03;10326760;28;806;-70
2023/11/02 06:29:33;;;;;;;;;;;;;;;18.05;57.14;96206.97;10325097;28;1228;-70
2023/11/02 06:34:29;;;;;;;;;;;;;;;18.06;57.13;96220.00;10325297;28;1006;-71
2023/11/02 06:39:25;;;;;;;;;;;;;;;18.05;57.16;96257.91;10324351;28;1972;-71
2023/11/02 06:44:21;;;;;;;;;;;;;;;18.05;57.06;96244.72;10325232;28;847;-71
2023/11/02 06:49:17;;;;;;;;;;;;;;;18.10;56.78;96257.41;10324987;28;782;-71
2023/11/02 06:54:13;;;;;;;;;;;;;;;18.11;56.96;96364.50;10324959;28;854;-70
2023/11/02 06:59:09;;;;;;;;;;;;;;;18.10;56.91;96357.56;10324759;28;1951;-70
2023/11/02 07:04:05;;;;;;;;;;;;;;;18.07;56.99;96334.16;10325000;28;818;-70
2023/11/02 07:09:01;;;;;;;;;;;;;;;18.05;56.89;96244.72;10324539;28;969;-70
2023/11/02 07:13:57;;;;;;;;;;;;;;;18.02;56.82;96260.00;10324403;28;866;-70
2023/11/02 07:18:55;;;;;;;;;;;;;;;18.01;57.05;96282.06;10324457;28;1906;-71
2023/11/02 07:23:51;;;;;;;;;;;;;;;18.01;56.85;96353.22;10324913;28;850;-71
2023/11/02 07:28:47;;;;;;;;;;;;;;;17.97;56.98;96373.75;10323818;28;1049;-70
2023/11/02 07:33:43;;;;;;;;;;;;;;;17.98;56.96;96395.69;10323199;28;1631;-70
2023/11/02 07:38:39;;;;;;;;;;;;;;;17.94;56.95;96392.50;10323914;28;1913;-71
2023/11/02 07:43:35;;;;;;;;;;;;;;;17.95;56.82;96352.00;10324641;28;844;-71
2023/11/02 07:48:31;;;;;;;;;;;;;;;18.00;56.68;96343.63;10324100;28;1093;-71
2023/11/02 07:53:27;;;;;;;;;;;;;;;18.02;56.62;96358.31;10331710;28;827;-70
2023/11/02 07:58:24;;;;;;;;;;;;;;;18.03;56.76;96367.91;10331426;28;1886;-70
2023/11/02 08:03:21;;;;;;;;;;;;;;;18.06;56.77;96364.13;10331372;28;782;-71
2023/11/02 08:08:17;;;;;;;;;;;;;;;18.05;56.72;96365.94;10331033;28;893;-71
2023/11/02 08:13:13;;;;;;;;;;;;;;;18.07;56.79;96371.88;10331197;28;919;-71
2023/11/02 08:18:08;;;;;;;;;;;;;;;18.08;56.66;96333.19;10330686;28;1889;-71
2023/11/02 08:23:04;;;;;;;;;;;;;;;18.12;56.80;96334.53;10330171;28;847;-70
2023/11/02 08:28:00;;;;;;;;;;;;;;;18.15;56.67;96326.31;10330294;28;879;-72
2023/11/02 08:32:56;;;;;;;;;;;;;;;18.16;56.57;96318.25;10330226;28;1129;-71
2023/11/02 08:37:52;;;;;;;;;;;;;;;18.15;56.74;96315.78;10330465;28;1993;-71
2023/11/02 08:42:48;;;;;;;;;;;;;;;18.18;56.79;96313.69;10329533;28;791;-71
2023/11/02 08:47:44;;;;;;;;;;;;;;;18.20;56.70;96302.13;10329042;28;905;-71
2023/11/02 08:52:40;;;;;;;;;;;;;;;18.18;56.84;96275.91;10330096;28;929;-71
2023/11/02 08:57:36;;;;;;;;;;;;;;;18.19;57.00;96261.78;10329941;28;1910;-71
2023/11/02 09:02:32;;;;;;;;;;;;;;;18.24;56.79;96295.59;10327921;28;834;-71
2023/11/02 09:07:29;;;;;;;;;;;;;;;18.23;56.63;96259.66;10329213;28;1254;-70
2023/11/02 09:12:25;;;;;;;;;;;;;;;18.21;56.89;96243.16;10327442;28;1156;-71
2023/11/02 09:17:21;;;;;;;;;;;;;;;18.23;56.79;96259.66;10329326;28;1961;-69
2023/11/02 09:22:17;;;;;;;;;;;;;;;18.28;56.63;96228.38;10328293;28;906;-69
2023/11/02 09:27:13;;;;;;;;;;;;;;;18.26;56.92;96240.88;10329301;28;864;-70
2023/11/02 09:32:09;;;;;;;;;;;;;;;18.24;56.91;96233.16;10327089;28;1081;-70
2023/11/02 09:37:05;;;;;;;;;;;;;;;18.28;56.86;96228.38;10327991;28;1914;-70
2023/11/02 09:42:02;;;;;;;;;;;;;;;18.32;56.55;96206.84;10328121;28;835;-70
2023/11/02 09:46:58;;;;;;;;;;;;;;;18.30;56.62;96194.78;10327625;28;975;-70
2023/11/02 09:51:55;;;;;;;;;;;;;;;18.27;56.73;96190.66;10327289;28;802;-69
2023/11/02 09:56:51;;;;;;;;;;;;;;;18.31;56.74;96170.91;10326710;28;1977;-70
2023/11/02 10:01:47;;;;;;;;;;;;;;;18.31;56.69;96175.34;10327430;28;854;-71
2023/11/02 10:06:43;;;;;;;;;;;;;;;18.30;56.70;96192.97;10326806;28;766;-70
2023/11/02 10:11:39;;;;;;;;;;;;;;;18.29;56.75;96188.69;10326204;28;849;-71
2023/11/02 10:16:34;;;;;;;;;;;;;;;18.34;56.44;96196.16;10325794;28;959;-70
2023/11/02 10:21:30;;;;;;;;;;;;;;;18.35;56.70;96184.59;10325960;28;1881;-71
2023/11/02 10:26:29;;;;;;;;;;;;;;;18.32;56.67;96162.03;10326098;28;909;-70
2023/11/02 10:31:27;;;;;;;;;;;;;;;18.36;56.63;96159.88;10325541;28;1322;-70
2023/11/02 10:36:23;;;;;;;;;;;;;;;18.39;56.36;96156.91;10325658;28;868;-72
2023/11/02 10:41:19;;;;;;;;;;;;;;;18.36;56.36;96163.34;10326150;28;1964;-71
2023/11/02 10:46:15;;;;;;;;;;;;;;;18.36;56.62;96134.34;10325422;28;968;-71
2023/11/02 10:51:11;;;;;;;;;;;;;;;18.37;56.57;96120.19;10325594;28;853;-71
2023/11/02 10:56:07;;;;;;;;;;;;;;;18.39;56.51;96141.97;10325590;28;911;-71
2023/11/02 11:01:03;;;;;;;;;;;;;;;18.39;56.52;96127.91;10325982;28;1945;-70
2023/11/02 11:05:59;;;;;;;;;;;;;;;18.37;56.51;96151.00;10325361;28;771;-70
2023/11/02 11:10:55;;;;;;;;;;;;;;;18.42;56.31;96125.00;10325421;28;850;-71
2023/11/02 11:15:51;;;;;;;;;;;;;;;18.40;56.37;96096.13;10325126;28;976;-71
2023/11/02 11:20:47;;;;;;;;;;;;;;;18.40;56.41;96104.03;10324395;28;1914;-71
2023/11/02 11:25:43;;;;;;;;;;;;;;;18.44;56.09;96111.63;10327658;28;1171;-71
2023/11/02 11:30:39;;;;;;;;;;;;;;;18.44;56.29;96103.72;10332897;28;1592;-71
2023/11/02 11:35:35;;;;;;;;;;;;;;;18.42;56.25;96082.81;10332444;28;1000;-71
2023/11/02 11:40:31;;;;;;;;;;;;;;;18.39;56.03;96085.72;10332663;28;1969;-71
2023/11/02 11:45:27;;;;;;;;;;;;;;;18.42;56.44;96114.44;10331882;28;1588;-71
2023/11/02 11:50:24;;;;;;;;;;;;;;;18.44;56.09;96112.44;10332124;28;941;-70
2023/11/02 11:55:20;;;;;;;;;;;;;;;18.44;56.13;96104.53;10331673;28;872;-70
2023/11/02 12:00:16;;;;;;;;;;;;;;;18.43;56.39;96084.44;10332061;28;1886;-70
2023/11/02 12:05:12;;;;;;;;;;;;;;;18.46;56.19;96089.41;10331898;28;926;-70
2023/11/02 12:10:08;;;;;;;;;;;;;;;18.47;56.02;96082.31;10332265;28;870;-71
2023/11/02 12:15:04;;;;;;;;;;;;;;;18.47;55.98;96066.47;10332028;28;908;-71
2023/11/02 12:20:01;;;;;;;;;;;;;;;18.46;56.42;96080.66;10331171;28;1890;-70
2023/11/02 12:24:57;;;;;;;;;;;;;;;18.55;55.86;96101.63;10330365;28;925;-70
2023/11/02 12:29:53;;;;;;;;;;;;;;;18.53;55.66;96093.06;10330853;28;1222;-70
2023/11/02 12:34:49;;;;;;;;;;;;;;;18.54;55.59;96102.59;10330100;28;1063;-70
2023/11/02 12:39:47;;;;;;;;;;;;;;;18.59;55.47;96088.94;10331349;28;1963;-70
2023/11/02 12:44:43;;;;;;;;;;;;;;;18.65;55.15;96100.66;10329880;28;941;-71
2023/11/02 12:49:38;;;;;;;;;;;;;;;18.60;55.29;96086.16;10330173;28;936;-70
2023/11/02 12:54:36;;;;;;;;;;;;;;;18.56;55.34;96090.09;10326527;28;1140;-70
2023/11/02 12:59:32;;;;;;;;;;;;;;;18.55;55.31;96083.19;10329804;28;1949;-70
2023/11/02 13:04:28;;;;;;;;;;;;;;;18.64;54.82;96081.38;10328720;28;960;-70
2023/11/02 13:09:26;;;;;;;;;;;;;;;18.66;55.00;96073.31;10329677;28;814;-70
2023/11/02 13:14:23;;;;;;;;;;;;;;;18.67;54.88;96081.03;10328934;28;775;-71
2023/11/02 13:19:19;;;;;;;;;;;;;;;18.72;54.82;96062.94;10328629;28;1951;-70
2023/11/02 13:24:16;;;;;;;;;;;;;;;18.79;54.47;96049.97;10328533;28;894;-70
2023/11/02 13:29:12;;;;;;;;;;;;;;;18.92;54.32;96052.94;10327825;28;1237;-70
2023/11/02 13:34:08;;;;;;;;;;;;;;;19.01;54.03;96064.31;10328294;28;806;-70
2023/11/02 13:39:06;;;;;;;;;;;;;;;19.07;53.84;96082.13;10327686;28;1914;-70
2023/11/02 13:44:03;;;;;;;;;;;;;;;18.92;54.12;96066.13;10327672;28;973;-70
2023/11/02 13:48:59;;;;;;;;;;;;;;;18.92;54.30;96044.19;10326865;28;885;-72
2023/11/02 13:53:55;;;;;;;;;;;;;;;18.81;54.44;96045.31;10327350;28;829;-70
2023/11/02 13:58:51;;;;;;;;;;;;;;;18.76;54.31;96047.66;10326926;28;1898;-70
2023/11/02 14:03:47;;;;;;;;;;;;;;;18.80;54.35;96046.31;10326959;28;1032;-70
2023/11/02 14:08:42;;;;;;;;;;;;;;;18.80;54.15;96064.78;10326475;28;831;-70
2023/11/02 14:13:38;;;;;;;;;;;;;;;18.83;53.91;96038.88;10326901;28;857;-70
2023/11/02 14:18:34;;;;;;;;;;;;;;;18.90;53.88;96054.91;10326690;28;1901;-70
2023/11/02 14:23:30;;;;;;;;;;;;;;;18.96;53.71;96056.88;10327003;28;770;-70
2023/11/02 14:28:27;;;;;;;;;;;;;;;19.10;53.40;96050.16;10326492;28;896;-70
2023/11/02 14:33:23;;;;;;;;;;;;;;;19.21;53.19;96041.88;10326550;28;1305;-70
2023/11/02 14:38:20;;;;;;;;;;;;;;;19.30;53.19;96055.91;10325701;28;1910;-70
2023/11/02 14:43:16;;;;;;;;;;;;;;;19.36;52.67;96073.75;10325658;28;853;-70
2023/11/02 14:48:12;;;;;;;;;;;;;;;19.40;52.44;96069.75;10325348;28;972;-69
2023/11/02 14:53:10;;;;;;;;;;;;;;;19.30;53.04;96074.38;10324933;28;1100;-70
2023/11/02 14:58:06;;;;;;;;;;;;;;;19.35;52.67;96069.44;10325458;28;1953;-70
2023/11/02 15:03:02;;;;;;;;;;;;;;;19.29;53.04;96064.00;10324657;28;943;-70
2023/11/02 15:07:58;;;;;;;;;;;;;;;19.20;52.88;96044.69;10325895;28;861;-70
2023/11/02 15:12:53;;;;;;;;;;;;;;;19.02;53.38;96045.69;10325538;28;868;-70
2023/11/02 15:17:49;;;;;;;;;;;;;;;18.94;53.45;96077.34;10326156;28;1898;-70
2023/11/02 15:22:45;;;;;;;;;;;;;;;18.86;53.62;96063.31;10323286;28;1005;-70
2023/11/02 15:27:43;;;;;;;;;;;;;;;18.85;53.30;96057.22;10324168;28;956;-70
2023/11/02 15:32:40;;;;;;;;;;;;;;;18.82;53.42;96065.47;10324526;28;1795;-71
2023/11/02 15:37:36;;;;;;;;;;;;;;;18.77;53.67;96059.84;10324724;28;1969;-70
2023/11/02 15:42:32;;;;;;;;;;;;;;;18.76;53.69;96071.38;10324814;28;814;-70
2023/11/02 15:47:28;;;;;;;;;;;;;;;18.74;53.59;96075.97;10324892;28;806;-70
2023/11/02 15:52:24;;;;;;;;;;;;;;;18.73;53.72;96079.56;10323895;28;955;-70
2023/11/02 15:57:20;;;;;;;;;;;;;;;18.72;53.53;96099.03;10324276;28;1894;-70
2023/11/02 16:02:16;;;;;;;;;;;;;;;18.67;53.76;96093.41;10324086;28;898;-70
2023/11/02 16:07:12;;;;;;;;;;;;;;;18.66;53.71;96100.50;10324208;28;913;-70
2023/11/02 16:12:11;;;;;;;;;;;;;;;18.68;53.59;96095.06;10327608;28;819;-70
2023/11/02 16:17:07;;;;;;;;;;;;;;;18.66;53.35;96133.97;10331955;28;1953;-69
2023/11/02 16:22:02;;;;;;;;;;;;;;;18.67;52.88;96122.44;10331861;28;830;-69
2023/11/02 16:26:59;;;;;;;;;;;;;;;18.60;53.00;96132.78;10328990;28;1113;-69
2023/11/02 16:31:56;;;;;;;;;;;;;;;18.52;52.55;96128.34;10330719;28;1294;-69
2023/11/02 16:36:53;;;;;;;;;;;;;;;18.49;52.33;96120.72;10331156;28;880;-69
2023/11/02 16:41:49;;;;;;;;;;;;;;;18.50;51.43;96122.38;10329976;28;1905;-69
2023/11/02 16:46:44;;;;;;;;;;;;;;;18.44;51.86;96114.28;10330695;28;845;-68
2023/11/02 16:51:40;;;;;;;;;;;;;;;18.45;52.84;96124.66;10329677;28;881;-69
2023/11/02 16:56:37;;;;;;;;;;;;;;;18.46;52.29;96123.69;10329707;28;857;-69
2023/11/02 17:01:32;;;;;;;;;;;;;;;18.46;52.88;96134.22;10329346;28;1978;-69
2023/11/02 17:06:28;;;;;;;;;;;;;;;18.47;52.44;96138.53;10329405;28;919;-69
2023/11/02 17:11:26;;;;;;;;;;;;;;;18.48;52.73;96144.63;10329119;28;953;-68
2023/11/02 17:16:22;;;;;;;;;;;;;;;18.49;52.85;96156.81;10328958;28;755;-68
2023/11/02 17:21:20;;;;;;;;;;;;;;;18.50;52.14;96153.22;10328323;28;1898;-69
2023/11/02 17:26:16;;;;;;;;;;;;;;;18.50;52.74;96140.84;10328577;28;806;-69
2023/11/02 17:31:13;;;;;;;;;;;;;;;18.54;52.76;96165.91;10328085;28;1085;-69
2023/11/02 17:36:10;;;;;;;;;;;;;;;18.52;52.92;96190.78;10329471;28;870;-69
2023/11/02 17:41:06;;;;;;;;;;;;;;;18.52;52.71;96196.06;10328106;28;1918;-69
2023/11/02 17:46:03;;;;;;;;;;;;;;;18.56;52.89;96200.03;10328915;28;806;-69
2023/11/02 17:51:00;;;;;;;;;;;;;;;18.60;52.83;96196.94;10328454;28;852;-70
2023/11/02 17:55:56;;;;;;;;;;;;;;;18.61;53.14;96208.31;10327527;28;893;-70
2023/11/02 18:00:52;;;;;;;;;;;;;;;18.60;53.14;96204.00;10327969;28;1961;-69
2023/11/02 18:05:48;;;;;;;;;;;;;;;18.60;53.39;96188.16;10327129;28;965;-69
2023/11/02 18:10:44;;;;;;;;;;;;;;;18.61;53.04;96198.56;10326427;28;865;-69
2023/11/02 18:15:44;;;;;;;;;;;;;;;18.60;53.24;96199.56;10326847;28;855;-69
2023/11/02 18:20:39;;;;;;;;;;;;;;;18.61;53.19;96193.31;10327148;28;1910;-69
2023/11/02 18:25:37;;;;;;;;;;;;;;;18.62;53.00;96191.47;10325823;28;933;-70
2023/11/02 18:30:35;;;;;;;;;;;;;;;18.65;52.91;96193.78;10325841;28;1366;-69
2023/11/02 18:35:30;;;;;;;;;;;;;;;18.65;53.03;96192.97;10326059;28;920;-70
2023/11/02 18:40:26;;;;;;;;;;;;;;;18.62;53.14;96197.56;10326730;28;1918;-69
2023/11/02 18:45:22;;;;;;;;;;;;;;;18.65;53.18;96203.53;10325906;28;765;-69
2023/11/02 18:50:18;;;;;;;;;;;;;;;18.67;53.17;96193.66;10325809;28;853;-69
2023/11/02 18:55:16;;;;;;;;;;;;;;;18.66;53.04;96178.81;10326289;28;975;-69
2023/11/02 19:00:13;;;;;;;;;;;;;;;18.62;53.14;96184.38;10325510;28;1871;-70
2023/11/02 19:05:11;;;;;;;;;;;;;;;18.68;53.12;96184.75;10326064;28;836;-69
2023/11/02 19:10:07;;;;;;;;;;;;;;;18.68;52.94;96175.03;10325341;28;985;-69
2023/11/02 19:15:05;;;;;;;;;;;;;;;18.65;53.12;96177.16;10324752;28;1086;-70
2023/11/02 19:20:01;;;;;;;;;;;;;;;18.64;53.03;96165.78;10325005;28;1902;-69
2023/11/02 19:24:57;;;;;;;;;;;;;;;18.68;52.71;96155.72;10325043;28;890;-69
2023/11/02 19:29:53;;;;;;;;;;;;;;;18.68;52.92;96166.28;10324937;28;1345;-69
2023/11/02 19:34:50;;;;;;;;;;;;;;;18.66;52.76;96170.91;10324915;28;908;-70
2023/11/02 19:39:46;;;;;;;;;;;;;;;18.67;52.95;96164.63;10324657;28;1917;-69
2023/11/02 19:44:42;;;;;;;;;;;;;;;18.68;52.76;96161.00;10325813;28;930;-69
2023/11/02 19:49:37;;;;;;;;;;;;;;;18.69;52.85;96167.94;10331960;28;897;-69
2023/11/02 19:54:33;;;;;;;;;;;;;;;18.67;52.88;96157.53;10333334;28;854;-69
2023/11/02 19:59:29;;;;;;;;;;;;;;;18.68;52.99;96155.72;10332012;28;1965;-69
2023/11/02 20:04:25;;;;;;;;;;;;;;;18.72;52.82;96163.16;10332601;28;881;-69
2023/11/02 20:09:21;;;;;;;;;;;;;;;18.69;52.79;96163.50;10331747;28;806;-69
2023/11/02 20:14:17;;;;;;;;;;;;;;;18.69;52.68;96168.78;10330913;28;949;-70
2023/11/02 20:19:13;;;;;;;;;;;;;;;18.68;52.79;96190.03;10331342;28;1902;-70
2023/11/02 20:24:09;;;;;;;;;;;;;;;18.71;52.77;96192.38;10331828;28;868;-69
2023/11/02 20:29:06;;;;;;;;;;;;;;;18.72;52.79;96200.09;10330831;28;1090;-69
2023/11/02 20:34:02;;;;;;;;;;;;;;;18.71;52.80;96197.63;10331548;28;822;-69
2023/11/02 20:38:57;;;;;;;;;;;;;;;18.68;52.99;96203.22;10331012;28;1987;-69
2023/11/02 20:43:53;;;;;;;;;;;;;;;18.67;53.02;96198.94;10330689;28;870;-70
2023/11/02 20:48:49;;;;;;;;;;;;;;;18.66;53.10;96210.47;10330931;28;892;-70
2023/11/02 20:53:45;;;;;;;;;;;;;;;18.65;52.94;96208.81;10329592;28;996;-69
2023/11/02 20:58:41;;;;;;;;;;;;;;;18.62;52.98;96202.84;10328560;28;1965;-70
2023/11/02 21:03:37;;;;;;;;;;;;;;;18.62;52.92;96218.69;10330427;28;910;-69
2023/11/02 21:08:33;;;;;;;;;;;;;;;18.60;53.07;96212.75;10329478;28;795;-70
2023/11/02 21:13:29;;;;;;;;;;;;;;;18.58;53.12;96224.44;10330010;28;845;-69
2023/11/02 21:18:25;;;;;;;;;;;;;;;18.53;53.11;96222.28;10330191;28;1909;-69
2023/11/02 21:23:21;;;;;;;;;;;;;;;18.54;53.03;96215.19;10329021;28;949;-70
2023/11/02 21:28:17;;;;;;;;;;;;;;;18.55;52.77;96220.31;10329385;28;846;-69
2023/11/02 21:33:13;;;;;;;;;;;;;;;18.54;53.03;96216.00;10328368;28;1272;-69
2023/11/02 21:38:08;;;;;;;;;;;;;;;18.52;52.80;96207.44;10327717;28;2045;-69
2023/11/02 21:43:04;;;;;;;;;;;;;;;18.51;52.85;96195.22;10328184;28;1125;-70
2023/11/02 21:48:00;;;;;;;;;;;;;;;18.49;52.87;96205.09;10328519;28;830;-69
2023/11/02 21:52:56;;;;;;;;;;;;;;;18.49;52.82;96199.00;10328332;28;850;-69
2023/11/02 21:57:53;;;;;;;;;;;;;;;18.49;52.79;96205.09;10327436;28;1893;-70
2023/11/02 22:02:49;;;;;;;;;;;;;;;18.47;52.87;96206.25;10327898;28;885;-70
2023/11/02 22:07:45;;;;;;;;;;;;;;;18.45;52.77;96195.88;10327229;28;909;-69
2023/11/02 22:12:41;;;;;;;;;;;;;;;18.43;53.02;96176.72;10326984;28;1075;-69
2023/11/02 22:17:36;;;;;;;;;;;;;;;18.38;53.08;96184.28;10326788;28;1955;-69
2023/11/02 22:22:32;;;;;;;;;;;;;;;18.37;53.20;96187.91;10326611;28;934;-69
2023/11/02 22:27:28;;;;;;;;;;;;;;;18.32;53.05;96192.84;10327071;28;858;-69
2023/11/02 22:32:24;;;;;;;;;;;;;;;18.31;52.96;96207.84;10326941;28;1238;-69
2023/11/02 22:37:20;;;;;;;;;;;;;;;18.28;53.03;96202.03;10326066;28;1973;-69
2023/11/02 22:42:17;;;;;;;;;;;;;;;18.26;53.08;96201.34;10326040;28;972;-69
2023/11/02 22:47:13;;;;;;;;;;;;;;;18.23;52.88;96197.22;10326933;28;849;-70
2023/11/02 22:52:09;;;;;;;;;;;;;;;18.20;52.58;96192.25;10325798;28;767;-70
2023/11/02 22:57:06;;;;;;;;;;;;;;;18.16;52.68;96191.75;10325742;28;806;-69
2023/11/02 23:02:02;;;;;;;;;;;;;;;18.15;52.97;96186.63;10325513;28;1894;-69
2023/11/02 23:06:58;;;;;;;;;;;;;;;18.13;52.85;96185.94;10325726;28;984;-69
2023/11/02 23:11:54;;;;;;;;;;;;;;;18.09;53.29;96179.34;10325264;28;837;-69
2023/11/02 23:16:51;;;;;;;;;;;;;;;18.07;53.30;96183.94;10324642;28;952;-70
2023/11/02 23:21:46;;;;;;;;;;;;;;;18.04;53.53;96187.72;10329078;28;1902;-69
2023/11/02 23:26:43;;;;;;;;;;;;;;;18.00;53.65;96182.91;10334195;28;922;-69
2023/11/02 23:31:39;;;;;;;;;;;;;;;17.98;53.67;96180.44;10333396;28;1104;-69
2023/11/02 23:36:35;;;;;;;;;;;;;;;17.93;53.63;96174.81;10333159;28;762;-69
2023/11/02 23:41:31;;;;;;;;;;;;;;;17.93;53.55;96172.97;10332907;28;1977;-69
2023/11/02 23:46:27;;;;;;;;;;;;;;;17.88;53.29;96171.81;10333541;28;1014;-69
2023/11/02 23:51:23;;;;;;;;;;;;;;;17.89;53.39;96183.97;10333466;28;782;-69
2023/11/02 23:56:19;;;;;;;;;;;;;;;17.87;53.38;96193.88;10333184;28;879;-69
